sensor_id;sensor_type;location;lat;lon;timestamp;pressure;altitude;pressure_sealevel;temperature;humidity
11830;BME280;5972;42.134;24.718;2023-04-03T00:02:24;98980.53;;;13.31;55.23
11830;BME280;5972;42.134;24.718;2023-04-03T00:04:51;98976.94;;;13.23;56.09
11830;BME280;5972;42.134;24.718;2023-04-03T00:07:17;98969.59;;;13.24;56.15
11830;BME280;5972;42.134;24.718;2023-04-03T00:09:46;98970.44;;;13.31;56.24
11830;BME280;5972;42.134;24.718;2023-04-03T00:12:13;98980.56;;;13.38;56.26
11830;BME280;5972;42.134;24.718;2023-04-03T00:14:40;98979.78;;;13.38;56.18
11830;BME280;5972;42.134;24.718;2023-04-03T00:17:07;98975.19;;;13.42;56.25
11830;BME280;5972;42.134;24.718;2023-04-03T00:19:34;98976.69;;;13.39;56.38
11830;BME280;5972;42.134;24.718;2023-04-03T00:22:01;98970.75;;;13.26;56.25
11830;BME280;5972;42.134;24.718;2023-04-03T00:24:28;98975.31;;;13.15;57.71
11830;BME280;5972;42.134;24.718;2023-04-03T00:26:56;98986.59;;;12.50;61.77
11830;BME280;5972;42.134;24.718;2023-04-03T00:29:23;98981.53;;;12.82;61.20
11830;BME280;5972;42.134;24.718;2023-04-03T00:31:49;98977.41;;;12.96;60.39
11830;BME280;5972;42.134;24.718;2023-04-03T00:34:16;98980.84;;;12.89;60.60
11830;BME280;5972;42.134;24.718;2023-04-03T00:36:43;98980.56;;;12.98;60.47
11830;BME280;5972;42.134;24.718;2023-04-03T00:39:10;98978.03;;;12.82;61.09
11830;BME280;5972;42.134;24.718;2023-04-03T00:41:36;98982.50;;;12.97;60.79
11830;BME280;5972;42.134;24.718;2023-04-03T00:46:59;98982.84;;;12.96;61.17
11830;BME280;5972;42.134;24.718;2023-04-03T00:49:27;98983.84;;;12.80;62.22
11830;BME280;5972;42.134;24.718;2023-04-03T00:51:55;98978.13;;;12.89;61.82
11830;BME280;5972;42.134;24.718;2023-04-03T00:54:23;98976.59;;;12.91;61.27
11830;BME280;5972;42.134;24.718;2023-04-03T00:56:51;98985.53;;;12.92;61.66
11830;BME280;5972;42.134;24.718;2023-04-03T00:59:20;98975.84;;;12.95;61.73
11830;BME280;5972;42.134;24.718;2023-04-03T01:01:50;98979.38;;;12.99;61.29
11830;BME280;5972;42.134;24.718;2023-04-03T01:04:28;98952.78;;;12.78;61.50
11830;BME280;5972;42.134;24.718;2023-04-03T01:06:57;98975.38;;;12.85;62.42
11830;BME280;5972;42.134;24.718;2023-04-03T01:09:25;98973.06;;;12.87;62.07
11830;BME280;5972;42.134;24.718;2023-04-03T01:11:52;98970.72;;;12.86;61.75
11830;BME280;5972;42.134;24.718;2023-04-03T01:14:19;98978.91;;;12.89;61.54
11830;BME280;5972;42.134;24.718;2023-04-03T01:16:52;98976.88;;;12.83;62.44
11830;BME280;5972;42.134;24.718;2023-04-03T01:19:21;98982.31;;;12.83;62.55
11830;BME280;5972;42.134;24.718;2023-04-03T01:22:09;98974.50;;;12.78;62.49
11830;BME280;5972;42.134;24.718;2023-04-03T01:24:38;98974.47;;;12.74;62.70
11830;BME280;5972;42.134;24.718;2023-04-03T01:27:06;98976.78;;;12.72;63.01
11830;BME280;5972;42.134;24.718;2023-04-03T01:29:35;98977.44;;;12.62;63.43
11830;BME280;5972;42.134;24.718;2023-04-03T01:32:04;98967.81;;;12.68;63.30
11830;BME280;5972;42.134;24.718;2023-04-03T01:34:31;98974.38;;;12.67;63.52
11830;BME280;5972;42.134;24.718;2023-04-03T01:36:57;98970.09;;;12.66;63.51
11830;BME280;5972;42.134;24.718;2023-04-03T01:39:24;98968.88;;;12.60;63.83
11830;BME280;5972;42.134;24.718;2023-04-03T01:41:51;98968.41;;;12.55;64.54
11830;BME280;5972;42.134;24.718;2023-04-03T01:44:18;98968.41;;;12.55;64.88
11830;BME280;5972;42.134;24.718;2023-04-03T01:46:45;98976.53;;;12.51;65.37
11830;BME280;5972;42.134;24.718;2023-04-03T01:49:13;98982.31;;;12.49;65.41
11830;BME280;5972;42.134;24.718;2023-04-03T01:51:40;98940.03;;;12.15;66.33
11830;BME280;5972;42.134;24.718;2023-04-03T01:54:07;98990.00;;;12.44;66.67
11830;BME280;5972;42.134;24.718;2023-04-03T01:56:33;98992.66;;;12.37;67.05
11830;BME280;5972;42.134;24.718;2023-04-03T01:59:00;98992.22;;;12.35;67.82
11830;BME280;5972;42.134;24.718;2023-04-03T02:01:27;98994.94;;;12.35;68.10
11830;BME280;5972;42.134;24.718;2023-04-03T02:03:53;98993.72;;;12.32;68.20
11830;BME280;5972;42.134;24.718;2023-04-03T02:06:22;98990.63;;;12.30;68.41
11830;BME280;5972;42.134;24.718;2023-04-03T02:08:48;98996.38;;;12.25;68.89
11830;BME280;5972;42.134;24.718;2023-04-03T02:11:15;98992.41;;;12.19;68.99
11830;BME280;5972;42.134;24.718;2023-04-03T02:13:42;98992.34;;;12.16;69.77
11830;BME280;5972;42.134;24.718;2023-04-03T02:16:09;98984.53;;;12.11;70.24
11830;BME280;5972;42.134;24.718;2023-04-03T02:18:38;98991.50;;;12.12;70.84
11830;BME280;5972;42.134;24.718;2023-04-03T02:21:05;98964.16;;;11.94;70.92
11830;BME280;5972;42.134;24.718;2023-04-03T02:23:33;98986.91;;;12.16;70.22
11830;BME280;5972;42.134;24.718;2023-04-03T02:26:09;98990.06;;;12.18;69.30
11830;BME280;5972;42.134;24.718;2023-04-03T02:28:37;98985.06;;;12.20;69.36
11830;BME280;5972;42.134;24.718;2023-04-03T02:31:04;98976.03;;;12.12;69.51
11830;BME280;5972;42.134;24.718;2023-04-03T02:33:32;98986.97;;;12.19;69.14
11830;BME280;5972;42.134;24.718;2023-04-03T02:36:00;98988.16;;;12.22;68.50
11830;BME280;5972;42.134;24.718;2023-04-03T02:38:27;99003.28;;;12.23;68.84
11830;BME280;5972;42.134;24.718;2023-04-03T02:40:59;98994.00;;;12.24;68.80
11830;BME280;5972;42.134;24.718;2023-04-03T02:43:26;98984.59;;;12.14;70.20
11830;BME280;5972;42.134;24.718;2023-04-03T02:45:53;98977.44;;;12.02;72.25
11830;BME280;5972;42.134;24.718;2023-04-03T02:48:20;98979.31;;;11.98;71.94
11830;BME280;5972;42.134;24.718;2023-04-03T02:50:47;98989.81;;;11.74;74.39
11830;BME280;5972;42.134;24.718;2023-04-03T02:53:14;98991.22;;;11.90;72.66
11830;BME280;5972;42.134;24.718;2023-04-03T02:55:41;98971.81;;;11.88;70.75
11830;BME280;5972;42.134;24.718;2023-04-03T02:58:09;98981.03;;;11.84;71.85
11830;BME280;5972;42.134;24.718;2023-04-03T03:00:37;98985.00;;;11.90;71.92
11830;BME280;5972;42.134;24.718;2023-04-03T03:03:04;98983.88;;;11.91;71.97
11830;BME280;5972;42.134;24.718;2023-04-03T03:05:31;98979.63;;;11.93;71.56
11830;BME280;5972;42.134;24.718;2023-04-03T03:07:57;98977.84;;;11.78;73.54
11830;BME280;5972;42.134;24.718;2023-04-03T03:10:24;98971.03;;;11.88;72.18
11830;BME280;5972;42.134;24.718;2023-04-03T03:12:51;98972.56;;;11.85;72.71
11830;BME280;5972;42.134;24.718;2023-04-03T03:15:19;98960.09;;;11.81;73.73
11830;BME280;5972;42.134;24.718;2023-04-03T03:17:46;98963.03;;;11.72;75.51
11830;BME280;5972;42.134;24.718;2023-04-03T03:20:13;98958.53;;;11.80;75.24
11830;BME280;5972;42.134;24.718;2023-04-03T03:22:41;98966.50;;;11.46;78.72
11830;BME280;5972;42.134;24.718;2023-04-03T03:25:08;98961.09;;;11.46;80.01
11830;BME280;5972;42.134;24.718;2023-04-03T03:27:35;98960.19;;;11.16;82.47
11830;BME280;5972;42.134;24.718;2023-04-03T03:30:02;98959.16;;;11.24;83.07
11830;BME280;5972;42.134;24.718;2023-04-03T03:32:31;98950.06;;;11.36;81.52
11830;BME280;5972;42.134;24.718;2023-04-03T03:34:57;98952.06;;;11.39;80.98
11830;BME280;5972;42.134;24.718;2023-04-03T03:37:24;98952.31;;;11.30;81.91
11830;BME280;5972;42.134;24.718;2023-04-03T03:39:52;98946.59;;;11.35;81.48
11830;BME280;5972;42.134;24.718;2023-04-03T03:42:19;98952.78;;;10.90;86.45
11830;BME280;5972;42.134;24.718;2023-04-03T03:44:45;98959.03;;;10.94;86.24
11830;BME280;5972;42.134;24.718;2023-04-03T03:47:12;98958.66;;;10.96;86.14
11830;BME280;5972;42.134;24.718;2023-04-03T03:49:40;98958.38;;;11.01;85.12
11830;BME280;5972;42.134;24.718;2023-04-03T03:52:07;98963.84;;;11.04;83.53
11830;BME280;5972;42.134;24.718;2023-04-03T03:54:35;98972.09;;;11.11;83.53
11830;BME280;5972;42.134;24.718;2023-04-03T03:57:02;98971.88;;;10.78;86.68
11830;BME280;5972;42.134;24.718;2023-04-03T03:59:29;98970.72;;;10.79;86.55
11830;BME280;5972;42.134;24.718;2023-04-03T04:01:56;98975.75;;;11.00;85.04
11830;BME280;5972;42.134;24.718;2023-04-03T04:04:23;98989.72;;;10.82;84.16
11830;BME280;5972;42.134;24.718;2023-04-03T04:06:51;98991.09;;;10.73;85.28
11830;BME280;5972;42.134;24.718;2023-04-03T04:09:18;98991.50;;;10.17;90.21
11830;BME280;5972;42.134;24.718;2023-04-03T04:11:44;98994.94;;;10.33;91.07
11830;BME280;5972;42.134;24.718;2023-04-03T04:14:11;99008.09;;;10.35;90.54
11830;BME280;5972;42.134;24.718;2023-04-03T04:16:38;98997.97;;;10.32;91.04
11830;BME280;5972;42.134;24.718;2023-04-03T04:19:05;98997.47;;;10.26;92.03
11830;BME280;5972;42.134;24.718;2023-04-03T04:21:32;99005.47;;;10.38;89.47
11830;BME280;5972;42.134;24.718;2023-04-03T04:24:00;99011.03;;;10.46;88.09
11830;BME280;5972;42.134;24.718;2023-04-03T04:26:27;99014.81;;;10.41;88.53
11830;BME280;5972;42.134;24.718;2023-04-03T04:28:54;99012.19;;;10.64;87.72
11830;BME280;5972;42.134;24.718;2023-04-03T04:31:21;99011.19;;;10.91;85.18
11830;BME280;5972;42.134;24.718;2023-04-03T04:33:47;98995.03;;;10.98;83.61
11830;BME280;5972;42.134;24.718;2023-04-03T04:36:14;99005.59;;;11.26;80.78
11830;BME280;5972;42.134;24.718;2023-04-03T04:38:41;99007.66;;;11.55;77.39
11830;BME280;5972;42.134;24.718;2023-04-03T04:41:09;99009.59;;;11.78;75.00
11830;BME280;5972;42.134;24.718;2023-04-03T04:43:36;99001.75;;;11.95;72.32
11830;BME280;5972;42.134;24.718;2023-04-03T04:46:04;99005.38;;;12.06;70.63
11830;BME280;5972;42.134;24.718;2023-04-03T04:48:31;98998.53;;;12.16;70.21
11830;BME280;5972;42.134;24.718;2023-04-03T04:50:58;99008.41;;;12.28;70.05
11830;BME280;5972;42.134;24.718;2023-04-03T04:53:25;99011.81;;;12.51;67.53
11830;BME280;5972;42.134;24.718;2023-04-03T04:55:52;99017.13;;;12.74;66.83
11830;BME280;5972;42.134;24.718;2023-04-03T04:58:20;99018.81;;;12.85;64.52
11830;BME280;5972;42.134;24.718;2023-04-03T05:00:47;99027.41;;;12.91;64.49
11830;BME280;5972;42.134;24.718;2023-04-03T05:03:14;99022.47;;;13.00;63.36
11830;BME280;5972;42.134;24.718;2023-04-03T05:05:41;99025.97;;;13.01;63.39
11830;BME280;5972;42.134;24.718;2023-04-03T05:08:08;99018.56;;;12.98;62.01
11830;BME280;5972;42.134;24.718;2023-04-03T05:10:35;99027.31;;;12.84;63.63
11830;BME280;5972;42.134;24.718;2023-04-03T05:13:01;99026.53;;;12.83;64.27
11830;BME280;5972;42.134;24.718;2023-04-03T05:15:30;99024.72;;;12.95;64.67
11830;BME280;5972;42.134;24.718;2023-04-03T05:17:56;99032.72;;;12.80;66.19
11830;BME280;5972;42.134;24.718;2023-04-03T05:20:23;99038.41;;;13.05;65.63
11830;BME280;5972;42.134;24.718;2023-04-03T05:22:50;99045.84;;;13.08;64.72
11830;BME280;5972;42.134;24.718;2023-04-03T05:25:17;99036.09;;;13.04;64.38
11830;BME280;5972;42.134;24.718;2023-04-03T05:27:43;99049.97;;;12.99;63.91
11830;BME280;5972;42.134;24.718;2023-04-03T05:30:11;99058.09;;;12.95;64.32
11830;BME280;5972;42.134;24.718;2023-04-03T05:32:39;99058.09;;;12.95;64.27
11830;BME280;5972;42.134;24.718;2023-04-03T05:35:07;99009.91;;;12.55;64.62
11830;BME280;5972;42.134;24.718;2023-04-03T05:37:34;99047.88;;;12.81;63.87
11830;BME280;5972;42.134;24.718;2023-04-03T05:40:01;99044.69;;;12.76;63.76
11830;BME280;5972;42.134;24.718;2023-04-03T05:42:28;99053.31;;;12.81;62.37
11830;BME280;5972;42.134;24.718;2023-04-03T05:44:55;99050.28;;;12.90;62.79
11830;BME280;5972;42.134;24.718;2023-04-03T05:47:22;99045.75;;;13.01;62.70
11830;BME280;5972;42.134;24.718;2023-04-03T05:49:50;99061.88;;;13.17;62.08
11830;BME280;5972;42.134;24.718;2023-04-03T05:52:21;99062.84;;;13.35;60.26
11830;BME280;5972;42.134;24.718;2023-04-03T05:54:49;99050.44;;;13.38;59.25
11830;BME280;5972;42.134;24.718;2023-04-03T05:57:16;99060.59;;;13.44;60.02
11830;BME280;5972;42.134;24.718;2023-04-03T05:59:43;99068.28;;;13.35;60.49
11830;BME280;5972;42.134;24.718;2023-04-03T06:02:12;99039.69;;;13.48;58.71
11830;BME280;5972;42.134;24.718;2023-04-03T06:04:39;99063.00;;;13.16;60.62
11830;BME280;5972;42.134;24.718;2023-04-03T06:07:10;99060.69;;;13.55;59.91
11830;BME280;5972;42.134;24.718;2023-04-03T06:09:38;99066.63;;;13.67;59.35
11830;BME280;5972;42.134;24.718;2023-04-03T06:12:05;99055.91;;;13.82;58.23
11830;BME280;5972;42.134;24.718;2023-04-03T06:14:32;99054.25;;;13.73;58.64
11830;BME280;5972;42.134;24.718;2023-04-03T06:16:58;99061.44;;;13.52;59.21
11830;BME280;5972;42.134;24.718;2023-04-03T06:19:27;99074.56;;;13.09;63.14
11830;BME280;5972;42.134;24.718;2023-04-03T06:21:53;99059.31;;;13.31;62.52
11830;BME280;5972;42.134;24.718;2023-04-03T06:24:22;99077.16;;;13.72;60.33
11830;BME280;5972;42.134;24.718;2023-04-03T06:26:50;99085.47;;;13.90;59.81
11830;BME280;5972;42.134;24.718;2023-04-03T06:29:18;99067.72;;;14.03;58.72
11830;BME280;5972;42.134;24.718;2023-04-03T06:31:45;99063.50;;;14.09;57.18
11830;BME280;5972;42.134;24.718;2023-04-03T06:34:12;99057.13;;;13.91;57.60
11830;BME280;5972;42.134;24.718;2023-04-03T06:36:39;99055.06;;;13.74;58.93
11830;BME280;5972;42.134;24.718;2023-04-03T06:39:08;99068.56;;;13.63;60.44
11830;BME280;5972;42.134;24.718;2023-04-03T06:41:36;99049.72;;;13.44;60.21
11830;BME280;5972;42.134;24.718;2023-04-03T06:44:03;99085.25;;;13.65;60.71
11830;BME280;5972;42.134;24.718;2023-04-03T06:46:30;99092.69;;;13.68;61.18
11830;BME280;5972;42.134;24.718;2023-04-03T06:48:57;99079.16;;;13.76;60.96
11830;BME280;5972;42.134;24.718;2023-04-03T06:51:25;99089.28;;;14.30;58.65
11830;BME280;5972;42.134;24.718;2023-04-03T06:53:54;99090.19;;;14.44;57.37
11830;BME280;5972;42.134;24.718;2023-04-03T06:56:22;99087.69;;;14.87;55.91
11830;BME280;5972;42.134;24.718;2023-04-03T06:58:50;99073.88;;;14.48;57.04
11830;BME280;5972;42.134;24.718;2023-04-03T07:01:20;99083.59;;;14.49;58.38
11830;BME280;5972;42.134;24.718;2023-04-03T07:03:47;99081.59;;;14.39;58.25
11830;BME280;5972;42.134;24.718;2023-04-03T07:06:15;99087.25;;;14.74;57.54
11830;BME280;5972;42.134;24.718;2023-04-03T07:08:43;99092.03;;;15.02;55.57
11830;BME280;5972;42.134;24.718;2023-04-03T07:11:12;99097.63;;;15.48;53.95
11830;BME280;5972;42.134;24.718;2023-04-03T07:13:39;99089.34;;;15.16;54.47
11830;BME280;5972;42.134;24.718;2023-04-03T07:16:08;99095.88;;;14.90;55.44
11830;BME280;5972;42.134;24.718;2023-04-03T07:18:35;99093.44;;;14.16;58.27
11830;BME280;5972;42.134;24.718;2023-04-03T07:21:03;99095.34;;;14.09;61.62
11830;BME280;5972;42.134;24.718;2023-04-03T07:23:30;99089.06;;;14.01;60.86
11830;BME280;5972;42.134;24.718;2023-04-03T07:25:57;99083.38;;;14.79;58.09
11830;BME280;5972;42.134;24.718;2023-04-03T07:28:24;99080.19;;;14.63;57.17
11830;BME280;5972;42.134;24.718;2023-04-03T07:30:54;99078.22;;;14.60;57.02
11830;BME280;5972;42.134;24.718;2023-04-03T07:33:26;99068.72;;;15.12;55.68
11830;BME280;5972;42.134;24.718;2023-04-03T07:35:53;99073.84;;;15.45;54.04
11830;BME280;5972;42.134;24.718;2023-04-03T07:38:20;99073.16;;;15.59;52.40
11830;BME280;5972;42.134;24.718;2023-04-03T07:40:48;99064.19;;;15.55;52.04
11830;BME280;5972;42.134;24.718;2023-04-03T07:43:16;99067.66;;;15.48;51.91
11830;BME280;5972;42.134;24.718;2023-04-03T07:45:43;99073.91;;;15.63;52.09
11830;BME280;5972;42.134;24.718;2023-04-03T07:48:10;99070.03;;;15.71;51.69
11830;BME280;5972;42.134;24.718;2023-04-03T07:50:39;99061.06;;;15.77;51.92
11830;BME280;5972;42.134;24.718;2023-04-03T07:53:06;99046.66;;;15.91;50.88
11830;BME280;5972;42.134;24.718;2023-04-03T07:55:33;99059.47;;;16.30;50.55
11830;BME280;5972;42.134;24.718;2023-04-03T07:58:02;99058.28;;;16.48;49.96
11830;BME280;5972;42.134;24.718;2023-04-03T08:00:30;99055.94;;;16.54;49.35
11830;BME280;5972;42.134;24.718;2023-04-03T08:02:56;99037.63;;;16.22;49.67
11830;BME280;5972;42.134;24.718;2023-04-03T08:05:23;99054.81;;;16.19;49.66
11830;BME280;5972;42.134;24.718;2023-04-03T08:07:52;99049.00;;;16.03;49.78
11830;BME280;5972;42.134;24.718;2023-04-03T08:10:18;99050.56;;;16.04;48.17
11830;BME280;5972;42.134;24.718;2023-04-03T08:12:46;99048.59;;;16.15;48.50
11830;BME280;5972;42.134;24.718;2023-04-03T08:15:13;99049.69;;;16.39;48.16
11830;BME280;5972;42.134;24.718;2023-04-03T08:17:40;99048.50;;;16.51;48.00
11830;BME280;5972;42.134;24.718;2023-04-03T08:20:09;99044.28;;;16.25;48.23
11830;BME280;5972;42.134;24.718;2023-04-03T08:22:36;99045.44;;;16.31;48.44
11830;BME280;5972;42.134;24.718;2023-04-03T08:25:05;99025.50;;;16.48;47.99
11830;BME280;5972;42.134;24.718;2023-04-03T08:27:32;99044.88;;;16.93;48.00
11830;BME280;5972;42.134;24.718;2023-04-03T08:29:58;99038.25;;;16.90;46.31
11830;BME280;5972;42.134;24.718;2023-04-03T08:32:25;99037.91;;;16.74;46.36
11830;BME280;5972;42.134;24.718;2023-04-03T08:34:53;99035.31;;;16.17;47.47
11830;BME280;5972;42.134;24.718;2023-04-03T08:37:20;99025.53;;;16.41;46.87
11830;BME280;5972;42.134;24.718;2023-04-03T08:39:46;99018.13;;;16.38;46.72
11830;BME280;5972;42.134;24.718;2023-04-03T08:42:22;99015.81;;;16.22;47.11
11830;BME280;5972;42.134;24.718;2023-04-03T08:44:59;99020.53;;;15.87;47.57
11830;BME280;5972;42.134;24.718;2023-04-03T08:47:36;99002.22;;;15.80;48.03
11830;BME280;5972;42.134;24.718;2023-04-03T08:50:07;99005.72;;;15.66;48.67
11830;BME280;5972;42.134;24.718;2023-04-03T08:52:39;98999.91;;;15.57;49.82
11830;BME280;5972;42.134;24.718;2023-04-03T08:55:19;98989.72;;;15.51;50.49
11830;BME280;5972;42.134;24.718;2023-04-03T08:57:51;98993.63;;;15.43;51.23
11830;BME280;5972;42.134;24.718;2023-04-03T09:00:23;98996.34;;;15.32;51.39
11830;BME280;5972;42.134;24.718;2023-04-03T09:02:53;98987.34;;;15.17;51.64
11830;BME280;5972;42.134;24.718;2023-04-03T09:05:30;99009.53;;;15.12;53.35
11830;BME280;5972;42.134;24.718;2023-04-03T09:08:05;99000.63;;;15.15;53.21
11830;BME280;5972;42.134;24.718;2023-04-03T09:10:37;99005.28;;;15.32;53.28
11830;BME280;5972;42.134;24.718;2023-04-03T09:13:09;98996.34;;;15.35;53.62
11830;BME280;5972;42.134;24.718;2023-04-03T09:15:40;99005.69;;;15.24;54.55
11830;BME280;5972;42.134;24.718;2023-04-03T09:18:13;99004.88;;;15.13;55.93
11830;BME280;5972;42.134;24.718;2023-04-03T09:20:46;98995.13;;;15.05;57.19
11830;BME280;5972;42.134;24.718;2023-04-03T09:23:21;99000.97;;;15.03;58.03
11830;BME280;5972;42.134;24.718;2023-04-03T09:25:51;98995.91;;;14.98;59.63
11830;BME280;5972;42.134;24.718;2023-04-03T09:28:21;98993.97;;;15.13;60.30
11830;BME280;5972;42.134;24.718;2023-04-03T09:30:48;98989.28;;;15.03;60.81
11830;BME280;5972;42.134;24.718;2023-04-03T09:33:15;98995.13;;;15.08;61.15
11830;BME280;5972;42.134;24.718;2023-04-03T09:35:43;98989.31;;;15.10;59.99
11830;BME280;5972;42.134;24.718;2023-04-03T09:38:21;98983.84;;;15.03;61.16
11830;BME280;5972;42.134;24.718;2023-04-03T09:40:49;98975.28;;;15.18;59.65
11830;BME280;5972;42.134;24.718;2023-04-03T09:43:27;98980.31;;;15.06;59.06
11830;BME280;5972;42.134;24.718;2023-04-03T09:45:55;98978.00;;;15.04;57.30
11830;BME280;5972;42.134;24.718;2023-04-03T09:48:23;98973.34;;;15.08;57.47
11830;BME280;5972;42.134;24.718;2023-04-03T09:50:56;98962.03;;;15.06;57.81
11830;BME280;5972;42.134;24.718;2023-04-03T09:53:30;98958.56;;;15.13;57.29
11830;BME280;5972;42.134;24.718;2023-04-03T09:55:58;98948.41;;;15.03;56.26
11830;BME280;5972;42.134;24.718;2023-04-03T09:58:28;98963.59;;;14.96;58.02
11830;BME280;5972;42.134;24.718;2023-04-03T10:00:57;98970.97;;;14.92;62.39
11830;BME280;5972;42.134;24.718;2023-04-03T10:03:28;98969.41;;;14.95;63.75
11830;BME280;5972;42.134;24.718;2023-04-03T10:05:55;98965.13;;;14.87;65.56
11830;BME280;5972;42.134;24.718;2023-04-03T10:08:26;98984.56;;;14.82;69.27
11830;BME280;5972;42.134;24.718;2023-04-03T10:11:14;98964.28;;;14.65;69.75
11830;BME280;5972;42.134;24.718;2023-04-03T10:13:54;98973.59;;;14.61;78.31
11830;BME280;5972;42.134;24.718;2023-04-03T10:16:26;98951.72;;;14.39;76.60
11830;BME280;5972;42.134;24.718;2023-04-03T10:21:46;98973.91;;;14.41;83.38
11830;BME280;5972;42.134;24.718;2023-04-03T10:24:22;98962.13;;;14.23;84.43
11830;BME280;5972;42.134;24.718;2023-04-03T10:26:55;98974.63;;;14.31;85.68
11830;BME280;5972;42.134;24.718;2023-04-03T10:29:48;98964.09;;;14.30;87.34
11830;BME280;5972;42.134;24.718;2023-04-03T10:32:41;98938.44;;;14.31;87.60
11830;BME280;5972;42.134;24.718;2023-04-03T10:35:18;98963.44;;;14.47;84.94
11830;BME280;5972;42.134;24.718;2023-04-03T10:37:57;98971.63;;;14.54;83.96
11830;BME280;5972;42.134;24.718;2023-04-03T10:40:32;98972.00;;;14.56;87.35
11830;BME280;5972;42.134;24.718;2023-04-03T10:43:06;98977.09;;;14.57;86.19
11830;BME280;5972;42.134;24.718;2023-04-03T10:45:55;98979.03;;;14.53;85.11
11830;BME280;5972;42.134;24.718;2023-04-03T10:48:34;98982.91;;;14.52;89.21
11830;BME280;5972;42.134;24.718;2023-04-03T10:51:16;98983.25;;;14.44;90.19
11830;BME280;5972;42.134;24.718;2023-04-03T10:53:52;98987.53;;;14.41;93.50
11830;BME280;5972;42.134;24.718;2023-04-03T10:56:30;98989.00;;;14.35;98.08
11830;BME280;5972;42.134;24.718;2023-04-03T10:59:02;98979.41;;;14.52;100.00
11830;BME280;5972;42.134;24.718;2023-04-03T11:01:36;98988.34;;;14.52;99.65
11830;BME280;5972;42.134;24.718;2023-04-03T11:04:06;98995.69;;;14.41;100.00
11830;BME280;5972;42.134;24.718;2023-04-03T11:06:36;98970.25;;;14.16;100.00
11830;BME280;5972;42.134;24.718;2023-04-03T11:09:10;98993.63;;;14.28;100.00
11830;BME280;5972;42.134;24.718;2023-04-03T11:11:43;98994.78;;;14.23;100.00
11830;BME280;5972;42.134;24.718;2023-04-03T11:14:13;98979.97;;;14.17;100.00
11830;BME280;5972;42.134;24.718;2023-04-03T11:16:46;98957.78;;;14.08;100.00
11830;BME280;5972;42.134;24.718;2023-04-03T11:19:18;98983.91;;;14.27;100.00
11830;BME280;5972;42.134;24.718;2023-04-03T11:21:52;98985.50;;;14.31;100.00
11830;BME280;5972;42.134;24.718;2023-04-03T11:24:24;98980.44;;;14.30;100.00
11830;BME280;5972;42.134;24.718;2023-04-03T11:26:52;98967.69;;;14.37;100.00
11830;BME280;5972;42.134;24.718;2023-04-03T11:29:24;98971.97;;;14.42;100.00
11830;BME280;5972;42.134;24.718;2023-04-03T11:32:16;98973.53;;;14.46;100.00
11830;BME280;5972;42.134;24.718;2023-04-03T11:34:47;98965.78;;;14.48;100.00
11830;BME280;5972;42.134;24.718;2023-04-03T11:37:21;98962.28;;;14.48;100.00
11830;BME280;5972;42.134;24.718;2023-04-03T11:39:54;98959.53;;;14.44;100.00
11830;BME280;5972;42.134;24.718;2023-04-03T11:42:26;98966.16;;;14.50;100.00
11830;BME280;5972;42.134;24.718;2023-04-03T11:45:21;98963.47;;;14.54;100.00
11830;BME280;5972;42.134;24.718;2023-04-03T11:47:53;98947.47;;;14.49;100.00
11830;BME280;5972;42.134;24.718;2023-04-03T11:50:43;98949.06;;;14.61;100.00
11830;BME280;5972;42.134;24.718;2023-04-03T11:53:34;98948.66;;;14.55;100.00
11830;BME280;5972;42.134;24.718;2023-04-03T11:56:29;98951.81;;;14.57;100.00
11830;BME280;5972;42.134;24.718;2023-04-03T11:59:23;98947.88;;;14.54;100.00
11830;BME280;5972;42.134;24.718;2023-04-03T12:01:51;98947.88;;;14.47;100.00
11830;BME280;5972;42.134;24.718;2023-04-03T12:04:21;98948.63;;;14.37;100.00
11830;BME280;5972;42.134;24.718;2023-04-03T12:07:13;98947.34;;;14.21;100.00
11830;BME280;5972;42.134;24.718;2023-04-03T12:10:14;98941.94;;;14.28;100.00
11830;BME280;5972;42.134;24.718;2023-04-03T12:12:43;98930.63;;;14.15;100.00
11830;BME280;5972;42.134;24.718;2023-04-03T12:15:44;98936.47;;;14.21;100.00
11830;BME280;5972;42.134;24.718;2023-04-03T12:21:20;98918.53;;;14.09;100.00
11830;BME280;5972;42.134;24.718;2023-04-03T12:24:03;98932.13;;;14.09;100.00
11830;BME280;5972;42.134;24.718;2023-04-03T12:26:36;98930.16;;;14.06;100.00
11830;BME280;5972;42.134;24.718;2023-04-03T12:29:15;98933.28;;;14.11;100.00
11830;BME280;5972;42.134;24.718;2023-04-03T12:31:52;98921.94;;;13.95;100.00
11830;BME280;5972;42.134;24.718;2023-04-03T12:34:34;98922.72;;;13.99;100.00
11830;BME280;5972;42.134;24.718;2023-04-03T12:37:19;98913.78;;;13.99;100.00
11830;BME280;5972;42.134;24.718;2023-04-03T12:40:04;98909.53;;;14.01;100.00
11830;BME280;5972;42.134;24.718;2023-04-03T12:43:02;98913.41;;;14.00;100.00
11830;BME280;5972;42.134;24.718;2023-04-03T12:45:41;98904.44;;;13.89;100.00
11830;BME280;5972;42.134;24.718;2023-04-03T12:48:14;98914.56;;;13.99;100.00
11830;BME280;5972;42.134;24.718;2023-04-03T12:50:43;98916.97;;;14.08;100.00
11830;BME280;5972;42.134;24.718;2023-04-03T12:53:16;98922.03;;;14.09;100.00
11830;BME280;5972;42.134;24.718;2023-04-03T12:55:45;98915.41;;;14.03;100.00
11830;BME280;5972;42.134;24.718;2023-04-03T12:58:22;98908.75;;;13.97;100.00
11830;BME280;5972;42.134;24.718;2023-04-03T13:00:59;98911.13;;;14.02;100.00
11830;BME280;5972;42.134;24.718;2023-04-03T13:03:27;98894.31;;;13.90;100.00
11830;BME280;5972;42.134;24.718;2023-04-03T13:05:58;98892.72;;;13.78;100.00
11830;BME280;5972;42.134;24.718;2023-04-03T13:08:27;98898.19;;;13.82;100.00
11830;BME280;5972;42.134;24.718;2023-04-03T13:10:58;98891.50;;;13.68;100.00
11830;BME280;5972;42.134;24.718;2023-04-03T13:13:26;98900.13;;;13.81;100.00
11830;BME280;5972;42.134;24.718;2023-04-03T13:15:53;98895.44;;;13.78;100.00
11830;BME280;5972;42.134;24.718;2023-04-03T13:18:31;98893.06;;;13.73;100.00
11830;BME280;5972;42.134;24.718;2023-04-03T13:21:01;98882.94;;;13.66;100.00
11830;BME280;5972;42.134;24.718;2023-04-03T13:23:32;98895.00;;;13.69;100.00